Nicole Leigh Reinauer — WCZ5696 — position and weather

sailwx.info

Track history (hours):
 
Tides and Currents Weather Stations Pressure Air Temp Water Temp Dewpoint Dewpoint Depression Visibility Wind Speed Wind Dir Waves Ship Positions

Nicole Leigh Reinauer

Owner: H A REINAUER INC, STATEN ISLAND, NY. More information available from US FCC via Universal Licensing System and Coast Guard Vessel Documentation Center.

Last reported at 2017-Apr-19 22:36 UTC. Time now 2017-Apr-23 05:20 UTC.
Position N 40°59' W 073°54'.

Length 167 m; draft 6.5 m.

Type: Tanker. MMSI: 366774330.

Date/timePositionNaut miles runAvg speedWind from/ knotsBaromVisibWave heightAir tempDewpointWater temp
2017-Apr-19 22:36N 40°59' W 073°54'211.3
2017-Apr-19 22:28N 40°57' W 073°54'511.4
2017-Apr-19 22:00N 40°52' W 073°56'611.7
2017-Apr-19 21:30N 40°47' W 073°60'611.6
2017-Apr-19 21:00N 40°41' W 074°02'5 9.5
2017-Apr-19 20:30N 40°39' W 074°07'3 6.1
2017-Apr-19 20:00N 40°39' W 074°11'4 7.7
2017-Apr-19 19:30N 40°35' W 074°13'0 0.0
2017-Apr-19 04:16N 40°35' W 074°13'2 7.3
2017-Apr-19 04:00N 40°37' W 074°12'4 6.0
2017-Apr-19 03:23N 40°38' W 074°08'0 0.0
2017-Apr-19 02:53N 40°38' W 074°08'0 0.0
2017-Apr-19 02:30N 40°38' W 074°08'1 1.0
2017-Apr-19 01:29N 40°39' W 074°07'0 0.0
2017-Apr-19 00:53N 40°39' W 074°07'0 0.0
2017-Apr-19 00:22N 40°39' W 074°07'0 0.0
2017-Apr-18 23:53N 40°39' W 074°07'0 0.0
2017-Apr-18 23:29N 40°39' W 074°07'0 0.0
2017-Apr-18 22:58N 40°39' W 074°07'0 1.0
2017-Apr-18 22:30N 40°39' W 074°07'4 8.5
2017-Apr-18 22:00N 40°37' W 074°12'2 0.4
2017-Apr-18 18:05N 40°35' W 074°13'0 0.2
2017-Apr-18 17:56N 40°35' W 074°13'1 1.9
2017-Apr-18 17:30N 40°36' W 074°12'3 6.9
2017-Apr-18 17:00N 40°39' W 074°10'510.2
2017-Apr-18 16:30N 40°39' W 074°04'1 1.9
2017-Apr-18 16:00N 40°40' W 074°03'0 0.0
2017-Apr-18 15:30N 40°40' W 074°03'0 0.0
2017-Apr-18 14:58N 40°40' W 074°03'0 0.0
2017-Apr-18 14:28N 40°40' W 074°03'0 0.0
2017-Apr-18 13:28N 40°40' W 074°03'0 0.0
2017-Apr-18 12:58N 40°40' W 074°03'0 0.0
2017-Apr-18 12:28N 40°40' W 074°03'0 0.0
2017-Apr-18 11:58N 40°40' W 074°03'0 0.0
2017-Apr-18 11:28N 40°40' W 074°03'0 0.0
2017-Apr-18 10:58N 40°40' W 074°03'0 0.1
2017-Apr-18 10:28N 40°40' W 074°03'0 0.0
2017-Apr-18 09:58N 40°40' W 074°03'0 0.0
2017-Apr-18 09:28N 40°40' W 074°03'0 0.1
2017-Apr-18 08:58N 40°40' W 074°03'0 0.3
2017-Apr-18 08:28N 40°40' W 074°02'0 0.3
2017-Apr-18 07:58N 40°40' W 074°02'0 0.1
2017-Apr-18 07:28N 40°40' W 074°02'0 0.0
2017-Apr-18 06:58N 40°40' W 074°02'0 0.1
2017-Apr-18 06:28N 40°40' W 074°02'0 0.1
2017-Apr-18 05:58N 40°40' W 074°02'0 0.0
2017-Apr-18 05:28N 40°40' W 074°02'0 0.2
2017-Apr-18 04:58N 40°40' W 074°02'0 0.2
2017-Apr-18 04:28N 40°40' W 074°02'0 0.1
2017-Apr-18 03:58N 40°40' W 074°02'0 0.1
2017-Apr-18 03:28N 40°40' W 074°02'0 0.1
2017-Apr-18 02:58N 40°40' W 074°02'0 0.0
2017-Apr-18 02:28N 40°40' W 074°02'0 0.1
2017-Apr-18 01:58N 40°40' W 074°03'0 0.0
2017-Apr-18 01:28N 40°40' W 074°03'0 0.0
2017-Apr-18 00:58N 40°40' W 074°03'0 0.0
2017-Apr-18 00:28N 40°40' W 074°03'0 0.0
2017-Apr-17 23:58N 40°40' W 074°03'0 0.0
2017-Apr-17 23:28N 40°40' W 074°03'0 0.0
2017-Apr-17 22:58N 40°40' W 074°03'0 0.0
2017-Apr-17 22:28N 40°40' W 074°03'0 0.0
2017-Apr-17 21:58N 40°40' W 074°03'0 0.0
2017-Apr-17 21:28N 40°40' W 074°03'0 0.1
2017-Apr-17 20:58N 40°40' W 074°03'0 0.0
2017-Apr-17 20:28N 40°40' W 074°03'0 0.1
2017-Apr-17 19:58N 40°40' W 074°03'0 0.4
2017-Apr-17 19:28N 40°40' W 074°02'0 0.2
2017-Apr-17 18:58N 40°40' W 074°02'0 0.1
2017-Apr-17 18:28N 40°40' W 074°02'0 0.0
2017-Apr-17 17:58N 40°40' W 074°02'0 0.0
2017-Apr-17 17:28N 40°40' W 074°02'0 0.0
2017-Apr-17 16:58N 40°40' W 074°02'0 0.2
2017-Apr-17 16:28N 40°40' W 074°02'0 0.3
2017-Apr-17 15:58N 40°40' W 074°02'0 0.1
2017-Apr-17 15:28N 40°40' W 074°03'0 0.0
2017-Apr-17 14:58N 40°40' W 074°03'0 0.0
2017-Apr-17 13:58N 40°40' W 074°03'0 0.0
2017-Apr-17 13:28N 40°40' W 074°03'0 0.0
2017-Apr-17 12:58N 40°40' W 074°03'0 0.0
2017-Apr-17 12:28N 40°40' W 074°03'0 0.0
2017-Apr-17 11:58N 40°40' W 074°03'0 0.0
2017-Apr-17 11:28N 40°40' W 074°03'0 0.0
2017-Apr-17 10:58N 40°40' W 074°03'0 0.0
2017-Apr-17 10:28N 40°40' W 074°03'0 0.0
2017-Apr-17 09:58N 40°40' W 074°03'0 0.0
2017-Apr-17 09:28N 40°40' W 074°03'0 0.1
2017-Apr-17 08:58N 40°40' W 074°03'0 0.0
2017-Apr-17 08:28N 40°40' W 074°03'0 0.1
2017-Apr-17 07:58N 40°40' W 074°03'0 0.4
2017-Apr-17 07:28N 40°40' W 074°02'0 0.2
2017-Apr-17 06:58N 40°40' W 074°02'0 0.1
2017-Apr-17 06:28N 40°40' W 074°02'0 0.0
2017-Apr-17 05:58N 40°40' W 074°02'0 0.0
2017-Apr-17 05:28N 40°40' W 074°02'0 0.0
2017-Apr-17 04:58N 40°40' W 074°02'0 0.0
2017-Apr-17 04:28N 40°40' W 074°02'0 0.0
2017-Apr-17 03:58N 40°40' W 074°02'0 0.1
2017-Apr-17 03:28N 40°40' W 074°02'0 0.3
2017-Apr-17 02:58N 40°40' W 074°02'0 0.2
2017-Apr-17 02:28N 40°40' W 074°02'0 0.1
2017-Apr-17 01:58N 40°40' W 074°02'0 0.0
2017-Apr-17 01:28N 40°40' W 074°02'0 0.1
2017-Apr-17 00:58N 40°40' W 074°03'0 0.1
2017-Apr-17 00:28N 40°40' W 074°03'0 0.1
2017-Apr-16 23:58N 40°40' W 074°03'0 0.0
2017-Apr-16 23:28N 40°40' W 074°03'0 0.0
2017-Apr-16 22:58N 40°40' W 074°03'0 0.0
2017-Apr-16 22:28N 40°40' W 074°03'0 0.0
2017-Apr-16 21:58N 40°40' W 074°03'0 0.0
2017-Apr-16 21:28N 40°40' W 074°03'0 0.1
2017-Apr-16 20:58N 40°40' W 074°03'0 0.0
2017-Apr-16 20:28N 40°40' W 074°03'0 0.0
2017-Apr-16 19:58N 40°40' W 074°03'0 0.2
2017-Apr-16 19:28N 40°40' W 074°02'0 0.3
2017-Apr-16 18:58N 40°40' W 074°02'0 0.1
2017-Apr-16 18:28N 40°40' W 074°02'0 0.1
2017-Apr-16 17:58N 40°40' W 074°02'0 0.0
2017-Apr-16 17:28N 40°40' W 074°02'0 0.0
2017-Apr-16 16:58N 40°40' W 074°02'0 0.0
2017-Apr-16 16:28N 40°40' W 074°02'0 0.0
2017-Apr-16 15:58N 40°40' W 074°02'0 0.0
2017-Apr-16 15:28N 40°40' W 074°02'0 0.2
2017-Apr-16 14:58N 40°40' W 074°02'0 0.2
2017-Apr-16 14:28N 40°40' W 074°02'0 0.1
2017-Apr-16 13:28N 40°40' W 074°03'0 0.0
2017-Apr-16 12:58N 40°40' W 074°03'0 0.0
2017-Apr-16 12:28N 40°40' W 074°03'0 0.1
2017-Apr-16 11:58N 40°40' W 074°03'0 0.0
2017-Apr-16 11:28N 40°40' W 074°03'0 0.1
2017-Apr-16 10:58N 40°40' W 074°03'0 0.0
2017-Apr-16 10:29N 40°40' W 074°03'3 7.3
2017-Apr-16 10:00N 40°36' W 074°03'5 9.3
2017-Apr-16 09:30N 40°32' W 074°01'5 9.3
2017-Apr-16 09:00N 40°30' W 073°56'4 8.2
2017-Apr-16 08:30N 40°26' W 073°54'5 9.8
2017-Apr-16 08:00N 40°21' W 073°54'14 9.9
2017-Apr-16 06:34N 40°07' W 073°55'111.4
2017-Apr-16 06:28N 40°06' W 073°55'611.5
2017-Apr-16 05:59N 39°60' W 073°56'811.6
2017-Apr-16 05:16N 39°52' W 073°57'311.7
2017-Apr-16 05:00N 39°49' W 073°58'611.5
2017-Apr-16 04:30N 39°43' W 073°60'611.9
2017-Apr-16 03:57N 39°37' W 074°04'612.0
2017-Apr-16 03:27N 39°32' W 074°08'53710.6
2017-Apr-14 00:45N 32°03' W 080°12'311.1
2017-Apr-14 00:30N 32°02' W 080°14'611.1
2017-Apr-14 00:01N 31°58' W 080°19'510.7
2017-Apr-13 23:30N 31°55' W 080°25'5 9.6
2017-Apr-13 23:01N 31°56' W 080°30'5 9.5
2017-Apr-13 22:30N 31°57' W 080°36'5 9.3
2017-Apr-13 22:00N 31°58' W 080°41'510.0
2017-Apr-13 21:31N 31°60' W 080°47'510.1
2017-Apr-13 21:01N 32°02' W 080°52'510.0
2017-Apr-13 20:31N 32°04' W 080°57'5 9.4
2017-Apr-13 20:00N 32°05' W 081°03'0 0.1
2017-Apr-13 19:24N 32°05' W 081°03'0 0.0
2017-Apr-13 19:00N 32°05' W 081°03'0 0.0
2017-Apr-13 18:30N 32°05' W 081°03'0 0.0
2017-Apr-13 18:00N 32°05' W 081°03'0 0.0
2017-Apr-13 17:18N 32°05' W 081°03'0 0.0
2017-Apr-13 17:00N 32°05' W 081°03'0 0.0
2017-Apr-13 16:30N 32°05' W 081°03'0 0.0
2017-Apr-13 16:00N 32°05' W 081°03'0 0.0
2017-Apr-13 15:24N 32°05' W 081°03'0 0.0
2017-Apr-13 14:48N 32°05' W 081°03'0 0.0
2017-Apr-13 14:30N 32°05' W 081°03'0 0.0
2017-Apr-13 13:24N 32°05' W 081°03'0 0.0
2017-Apr-13 12:54N 32°05' W 081°03'0 0.0
2017-Apr-13 12:30N 32°05' W 081°03'0 0.0
2017-Apr-13 12:00N 32°05' W 081°03'0 0.0
2017-Apr-13 11:30N 32°05' W 081°03'0 0.0
2017-Apr-13 11:00N 32°05' W 081°03'0 0.0
2017-Apr-13 10:30N 32°05' W 081°03'0 0.0
2017-Apr-13 10:00N 32°05' W 081°03'0 0.0
2017-Apr-13 09:30N 32°05' W 081°03'0 0.0
2017-Apr-13 09:00N 32°05' W 081°03'0 0.0
2017-Apr-13 08:24N 32°05' W 081°03'0 0.0
2017-Apr-13 08:00N 32°05' W 081°03'0 0.0
2017-Apr-13 07:24N 32°05' W 081°03'0 0.0
2017-Apr-13 07:00N 32°05' W 081°03'0 0.0
2017-Apr-13 06:24N 32°05' W 081°03'0 0.0
2017-Apr-13 05:54N 32°05' W 081°03'0 0.0
2017-Apr-13 05:30N 32°05' W 081°03'0 0.0
2017-Apr-13 05:00N 32°05' W 081°03'0 0.0
2017-Apr-13 04:30N 32°05' W 081°03'0 0.0
2017-Apr-13 04:00N 32°05' W 081°03'0 0.0
2017-Apr-13 03:30N 32°05' W 081°03'0 0.0
2017-Apr-13 03:00N 32°05' W 081°03'0 0.0
2017-Apr-13 02:30N 32°05' W 081°03'0 0.0
2017-Apr-13 01:54N 32°05' W 081°03'0 0.0
2017-Apr-13 01:30N 32°05' W 081°03'0 0.0
2017-Apr-13 00:18N 32°05' W 081°03'0 0.0
2017-Apr-13 00:00N 32°05' W 081°03'0 0.0
2017-Apr-12 23:24N 32°05' W 081°03'0 0.0
2017-Apr-12 23:00N 32°05' W 081°03'0 0.0
2017-Apr-12 22:30N 32°05' W 081°03'0 0.0
2017-Apr-12 22:00N 32°05' W 081°03'0 0.0
2017-Apr-12 21:30N 32°05' W 081°03'0 0.0
2017-Apr-12 20:54N 32°05' W 081°03'0 0.0
2017-Apr-12 20:30N 32°05' W 081°03'0 0.0
2017-Apr-12 19:42N 32°05' W 081°03'0 0.0
2017-Apr-12 19:30N 32°05' W 081°03'0 0.0
2017-Apr-12 18:54N 32°05' W 081°03'0 0.0
2017-Apr-12 18:30N 32°05' W 081°03'0 0.0
2017-Apr-12 17:54N 32°05' W 081°03'0 0.0
2017-Apr-12 17:30N 32°05' W 081°03'0 0.0
2017-Apr-12 16:54N 32°05' W 081°03'0 0.0
2017-Apr-12 16:30N 32°05' W 081°03'0 0.0
2017-Apr-12 16:00N 32°05' W 081°03'0 0.0
2017-Apr-12 15:30N 32°05' W 081°03'0 0.0
2017-Apr-12 14:30N 32°05' W 081°03'0 0.0
2017-Apr-12 13:30N 32°05' W 081°03'0 0.0
2017-Apr-12 13:00N 32°05' W 081°03'0 0.0
2017-Apr-12 12:12N 32°05' W 081°03'0 0.0
2017-Apr-12 12:00N 32°05' W 081°03'0 0.0
2017-Apr-12 11:30N 32°05' W 081°03'0 0.0
2017-Apr-12 10:54N 32°05' W 081°03'0 0.0
2017-Apr-12 10:30N 32°05' W 081°03'0 0.0
2017-Apr-12 10:00N 32°05' W 081°03'0 0.0
2017-Apr-12 09:30N 32°05' W 081°03'0 0.0
2017-Apr-12 09:00N 32°05' W 081°03'0 0.0
2017-Apr-12 08:30N 32°05' W 081°03'2 3.4
2017-Apr-12 08:00N 32°06' W 081°01'4 7.8
2017-Apr-12 07:30N 32°04' W 080°57'4 8.2
2017-Apr-12 07:00N 32°02' W 080°53'4 8.1
2017-Apr-12 06:30N 32°01' W 080°48'4 8.6
2017-Apr-12 06:00N 31°58' W 080°44'3 5.9
2017-Apr-12 05:30N 31°60' W 080°41'4 8.0
2017-Apr-12 05:00N 31°57' W 080°37'5 9.6
2017-Apr-12 04:30N 31°56' W 080°32'5 9.7
2017-Apr-12 04:00N 31°56' W 080°26'  
2017-Apr-09 23:43N 38°18' W 074°42'211.0
2017-Apr-09 23:30N 38°20' W 074°42'511.0
2017-Apr-09 23:00N 38°26' W 074°41'  
Track history (hours):
 
Tides and Currents Weather Stations Pressure Air Temp Water Temp Dewpoint Dewpoint Depression Visibility Wind Speed Wind Dir Waves Ship Positions

Nicole Leigh Reinauer

Owner: H A REINAUER INC, STATEN ISLAND, NY. More information available from US FCC via Universal Licensing System and Coast Guard Vessel Documentation Center.

Last reported at 2017-Apr-19 22:36 UTC. Time now 2017-Apr-23 05:20 UTC.
Position N 40°59' W 073°54'.

Length 167 m; draft 6.5 m.

Type: Tanker. MMSI: 366774330.

Date/timePositionNaut miles runAvg speedWind from/ knotsBaromVisibWave heightAir tempDewpointWater temp
2017-Apr-19 22:36N 40°59' W 073°54'211.3
2017-Apr-19 22:28N 40°57' W 073°54'511.4
2017-Apr-19 22:00N 40°52' W 073°56'611.7
2017-Apr-19 21:30N 40°47' W 073°60'611.6
2017-Apr-19 21:00N 40°41' W 074°02'5 9.5
2017-Apr-19 20:30N 40°39' W 074°07'3 6.1
2017-Apr-19 20:00N 40°39' W 074°11'4 7.7
2017-Apr-19 19:30N 40°35' W 074°13'0 0.0
2017-Apr-19 04:16N 40°35' W 074°13'2 7.3
2017-Apr-19 04:00N 40°37' W 074°12'4 6.0
2017-Apr-19 03:23N 40°38' W 074°08'0 0.0
2017-Apr-19 02:53N 40°38' W 074°08'0 0.0
2017-Apr-19 02:30N 40°38' W 074°08'1 1.0
2017-Apr-19 01:29N 40°39' W 074°07'0 0.0
2017-Apr-19 00:53N 40°39' W 074°07'0 0.0
2017-Apr-19 00:22N 40°39' W 074°07'0 0.0
2017-Apr-18 23:53N 40°39' W 074°07'0 0.0
2017-Apr-18 23:29N 40°39' W 074°07'0 0.0
2017-Apr-18 22:58N 40°39' W 074°07'0 1.0
2017-Apr-18 22:30N 40°39' W 074°07'4 8.5
2017-Apr-18 22:00N 40°37' W 074°12'2 0.4
2017-Apr-18 18:05N 40°35' W 074°13'0 0.2
2017-Apr-18 17:56N 40°35' W 074°13'1 1.9
2017-Apr-18 17:30N 40°36' W 074°12'3 6.9
2017-Apr-18 17:00N 40°39' W 074°10'510.2
2017-Apr-18 16:30N 40°39' W 074°04'1 1.9
2017-Apr-18 16:00N 40°40' W 074°03'0 0.0
2017-Apr-18 15:30N 40°40' W 074°03'0 0.0
2017-Apr-18 14:58N 40°40' W 074°03'0 0.0
2017-Apr-18 14:28N 40°40' W 074°03'0 0.0
2017-Apr-18 13:28N 40°40' W 074°03'0 0.0
2017-Apr-18 12:58N 40°40' W 074°03'0 0.0
2017-Apr-18 12:28N 40°40' W 074°03'0 0.0
2017-Apr-18 11:58N 40°40' W 074°03'0 0.0
2017-Apr-18 11:28N 40°40' W 074°03'0 0.0
2017-Apr-18 10:58N 40°40' W 074°03'0 0.1
2017-Apr-18 10:28N 40°40' W 074°03'0 0.0
2017-Apr-18 09:58N 40°40' W 074°03'0 0.0
2017-Apr-18 09:28N 40°40' W 074°03'0 0.1
2017-Apr-18 08:58N 40°40' W 074°03'0 0.3
2017-Apr-18 08:28N 40°40' W 074°02'0 0.3
2017-Apr-18 07:58N 40°40' W 074°02'0 0.1
2017-Apr-18 07:28N 40°40' W 074°02'0 0.0
2017-Apr-18 06:58N 40°40' W 074°02'0 0.1
2017-Apr-18 06:28N 40°40' W 074°02'0 0.1
2017-Apr-18 05:58N 40°40' W 074°02'0 0.0
2017-Apr-18 05:28N 40°40' W 074°02'0 0.2
2017-Apr-18 04:58N 40°40' W 074°02'0 0.2
2017-Apr-18 04:28N 40°40' W 074°02'0 0.1
2017-Apr-18 03:58N 40°40' W 074°02'0 0.1
2017-Apr-18 03:28N 40°40' W 074°02'0 0.1
2017-Apr-18 02:58N 40°40' W 074°02'0 0.0
2017-Apr-18 02:28N 40°40' W 074°02'0 0.1
2017-Apr-18 01:58N 40°40' W 074°03'0 0.0
2017-Apr-18 01:28N 40°40' W 074°03'0 0.0
2017-Apr-18 00:58N 40°40' W 074°03'0 0.0
2017-Apr-18 00:28N 40°40' W 074°03'0 0.0
2017-Apr-17 23:58N 40°40' W 074°03'0 0.0
2017-Apr-17 23:28N 40°40' W 074°03'0 0.0
2017-Apr-17 22:58N 40°40' W 074°03'0 0.0
2017-Apr-17 22:28N 40°40' W 074°03'0 0.0
2017-Apr-17 21:58N 40°40' W 074°03'0 0.0
2017-Apr-17 21:28N 40°40' W 074°03'0 0.1
2017-Apr-17 20:58N 40°40' W 074°03'0 0.0
2017-Apr-17 20:28N 40°40' W 074°03'0 0.1
2017-Apr-17 19:58N 40°40' W 074°03'0 0.4
2017-Apr-17 19:28N 40°40' W 074°02'0 0.2
2017-Apr-17 18:58N 40°40' W 074°02'0 0.1
2017-Apr-17 18:28N 40°40' W 074°02'0 0.0
2017-Apr-17 17:58N 40°40' W 074°02'0 0.0
2017-Apr-17 17:28N 40°40' W 074°02'0 0.0
2017-Apr-17 16:58N 40°40' W 074°02'0 0.2
2017-Apr-17 16:28N 40°40' W 074°02'0 0.3
2017-Apr-17 15:58N 40°40' W 074°02'0 0.1
2017-Apr-17 15:28N 40°40' W 074°03'0 0.0
2017-Apr-17 14:58N 40°40' W 074°03'0 0.0
2017-Apr-17 13:58N 40°40' W 074°03'0 0.0
2017-Apr-17 13:28N 40°40' W 074°03'0 0.0
2017-Apr-17 12:58N 40°40' W 074°03'0 0.0
2017-Apr-17 12:28N 40°40' W 074°03'0 0.0
2017-Apr-17 11:58N 40°40' W 074°03'0 0.0
2017-Apr-17 11:28N 40°40' W 074°03'0 0.0
2017-Apr-17 10:58N 40°40' W 074°03'0 0.0
2017-Apr-17 10:28N 40°40' W 074°03'0 0.0
2017-Apr-17 09:58N 40°40' W 074°03'0 0.0
2017-Apr-17 09:28N 40°40' W 074°03'0 0.1
2017-Apr-17 08:58N 40°40' W 074°03'0 0.0
2017-Apr-17 08:28N 40°40' W 074°03'0 0.1
2017-Apr-17 07:58N 40°40' W 074°03'0 0.4
2017-Apr-17 07:28N 40°40' W 074°02'0 0.2
2017-Apr-17 06:58N 40°40' W 074°02'0 0.1
2017-Apr-17 06:28N 40°40' W 074°02'0 0.0
2017-Apr-17 05:58N 40°40' W 074°02'0 0.0
2017-Apr-17 05:28N 40°40' W 074°02'0 0.0
2017-Apr-17 04:58N 40°40' W 074°02'0 0.0
2017-Apr-17 04:28N 40°40' W 074°02'0 0.0
2017-Apr-17 03:58N 40°40' W 074°02'0 0.1
2017-Apr-17 03:28N 40°40' W 074°02'0 0.3
2017-Apr-17 02:58N 40°40' W 074°02'0 0.2
2017-Apr-17 02:28N 40°40' W 074°02'0 0.1
2017-Apr-17 01:58N 40°40' W 074°02'0 0.0
2017-Apr-17 01:28N 40°40' W 074°02'0 0.1
2017-Apr-17 00:58N 40°40' W 074°03'0 0.1
2017-Apr-17 00:28N 40°40' W 074°03'0 0.1
2017-Apr-16 23:58N 40°40' W 074°03'0 0.0
2017-Apr-16 23:28N 40°40' W 074°03'0 0.0
2017-Apr-16 22:58N 40°40' W 074°03'0 0.0
2017-Apr-16 22:28N 40°40' W 074°03'0 0.0
2017-Apr-16 21:58N 40°40' W 074°03'0 0.0
2017-Apr-16 21:28N 40°40' W 074°03'0 0.1
2017-Apr-16 20:58N 40°40' W 074°03'0 0.0
2017-Apr-16 20:28N 40°40' W 074°03'0 0.0
2017-Apr-16 19:58N 40°40' W 074°03'0 0.2
2017-Apr-16 19:28N 40°40' W 074°02'0 0.3
2017-Apr-16 18:58N 40°40' W 074°02'0 0.1
2017-Apr-16 18:28N 40°40' W 074°02'0 0.1
2017-Apr-16 17:58N 40°40' W 074°02'0 0.0
2017-Apr-16 17:28N 40°40' W 074°02'0 0.0
2017-Apr-16 16:58N 40°40' W 074°02'0 0.0
2017-Apr-16 16:28N 40°40' W 074°02'0 0.0
2017-Apr-16 15:58N 40°40' W 074°02'0 0.0
2017-Apr-16 15:28N 40°40' W 074°02'0 0.2
2017-Apr-16 14:58N 40°40' W 074°02'0 0.2
2017-Apr-16 14:28N 40°40' W 074°02'0 0.1
2017-Apr-16 13:28N 40°40' W 074°03'0 0.0
2017-Apr-16 12:58N 40°40' W 074°03'0 0.0
2017-Apr-16 12:28N 40°40' W 074°03'0 0.1
2017-Apr-16 11:58N 40°40' W 074°03'0 0.0
2017-Apr-16 11:28N 40°40' W 074°03'0 0.1
2017-Apr-16 10:58N 40°40' W 074°03'0 0.0
2017-Apr-16 10:29N 40°40' W 074°03'3 7.3
2017-Apr-16 10:00N 40°36' W 074°03'5 9.3
2017-Apr-16 09:30N 40°32' W 074°01'5 9.3
2017-Apr-16 09:00N 40°30' W 073°56'4 8.2
2017-Apr-16 08:30N 40°26' W 073°54'5 9.8
2017-Apr-16 08:00N 40°21' W 073°54'14 9.9
2017-Apr-16 06:34N 40°07' W 073°55'111.4
2017-Apr-16 06:28N 40°06' W 073°55'611.5
2017-Apr-16 05:59N 39°60' W 073°56'811.6
2017-Apr-16 05:16N 39°52' W 073°57'311.7
2017-Apr-16 05:00N 39°49' W 073°58'611.5
2017-Apr-16 04:30N 39°43' W 073°60'611.9
2017-Apr-16 03:57N 39°37' W 074°04'612.0
2017-Apr-16 03:27N 39°32' W 074°08'53710.6
2017-Apr-14 00:45N 32°03' W 080°12'311.1
2017-Apr-14 00:30N 32°02' W 080°14'611.1
2017-Apr-14 00:01N 31°58' W 080°19'510.7
2017-Apr-13 23:30N 31°55' W 080°25'5 9.6
2017-Apr-13 23:01N 31°56' W 080°30'5 9.5
2017-Apr-13 22:30N 31°57' W 080°36'5 9.3
2017-Apr-13 22:00N 31°58' W 080°41'510.0
2017-Apr-13 21:31N 31°60' W 080°47'510.1
2017-Apr-13 21:01N 32°02' W 080°52'510.0
2017-Apr-13 20:31N 32°04' W 080°57'5 9.4
2017-Apr-13 20:00N 32°05' W 081°03'0 0.1
2017-Apr-13 19:24N 32°05' W 081°03'0 0.0
2017-Apr-13 19:00N 32°05' W 081°03'0 0.0
2017-Apr-13 18:30N 32°05' W 081°03'0 0.0
2017-Apr-13 18:00N 32°05' W 081°03'0 0.0
2017-Apr-13 17:18N 32°05' W 081°03'0 0.0
2017-Apr-13 17:00N 32°05' W 081°03'0 0.0
2017-Apr-13 16:30N 32°05' W 081°03'0 0.0
2017-Apr-13 16:00N 32°05' W 081°03'0 0.0
2017-Apr-13 15:24N 32°05' W 081°03'0 0.0
2017-Apr-13 14:48N 32°05' W 081°03'0 0.0
2017-Apr-13 14:30N 32°05' W 081°03'0 0.0
2017-Apr-13 13:24N 32°05' W 081°03'0 0.0
2017-Apr-13 12:54N 32°05' W 081°03'0 0.0
2017-Apr-13 12:30N 32°05' W 081°03'0 0.0
2017-Apr-13 12:00N 32°05' W 081°03'0 0.0
2017-Apr-13 11:30N 32°05' W 081°03'0 0.0
2017-Apr-13 11:00N 32°05' W 081°03'0 0.0
2017-Apr-13 10:30N 32°05' W 081°03'0 0.0
2017-Apr-13 10:00N 32°05' W 081°03'0 0.0
2017-Apr-13 09:30N 32°05' W 081°03'0 0.0
2017-Apr-13 09:00N 32°05' W 081°03'0 0.0
2017-Apr-13 08:24N 32°05' W 081°03'0 0.0
2017-Apr-13 08:00N 32°05' W 081°03'0 0.0
2017-Apr-13 07:24N 32°05' W 081°03'0 0.0
2017-Apr-13 07:00N 32°05' W 081°03'0 0.0
2017-Apr-13 06:24N 32°05' W 081°03'0 0.0
2017-Apr-13 05:54N 32°05' W 081°03'0 0.0
2017-Apr-13 05:30N 32°05' W 081°03'0 0.0
2017-Apr-13 05:00N 32°05' W 081°03'0 0.0
2017-Apr-13 04:30N 32°05' W 081°03'0 0.0
2017-Apr-13 04:00N 32°05' W 081°03'0 0.0
2017-Apr-13 03:30N 32°05' W 081°03'0 0.0
2017-Apr-13 03:00N 32°05' W 081°03'0 0.0
2017-Apr-13 02:30N 32°05' W 081°03'0 0.0
2017-Apr-13 01:54N 32°05' W 081°03'0 0.0
2017-Apr-13 01:30N 32°05' W 081°03'0 0.0
2017-Apr-13 00:18N 32°05' W 081°03'0 0.0
2017-Apr-13 00:00N 32°05' W 081°03'0 0.0
2017-Apr-12 23:24N 32°05' W 081°03'0 0.0
2017-Apr-12 23:00N 32°05' W 081°03'0 0.0
2017-Apr-12 22:30N 32°05' W 081°03'0 0.0
2017-Apr-12 22:00N 32°05' W 081°03'0 0.0
2017-Apr-12 21:30N 32°05' W 081°03'0 0.0
2017-Apr-12 20:54N 32°05' W 081°03'0 0.0
2017-Apr-12 20:30N 32°05' W 081°03'0 0.0
2017-Apr-12 19:42N 32°05' W 081°03'0 0.0
2017-Apr-12 19:30N 32°05' W 081°03'0 0.0
2017-Apr-12 18:54N 32°05' W 081°03'0 0.0
2017-Apr-12 18:30N 32°05' W 081°03'0 0.0
2017-Apr-12 17:54N 32°05' W 081°03'0 0.0
2017-Apr-12 17:30N 32°05' W 081°03'0 0.0
2017-Apr-12 16:54N 32°05' W 081°03'0 0.0
2017-Apr-12 16:30N 32°05' W 081°03'0 0.0
2017-Apr-12 16:00N 32°05' W 081°03'0 0.0
2017-Apr-12 15:30N 32°05' W 081°03'0 0.0
2017-Apr-12 14:30N 32°05' W 081°03'0 0.0
2017-Apr-12 13:30N 32°05' W 081°03'0 0.0
2017-Apr-12 13:00N 32°05' W 081°03'0 0.0
2017-Apr-12 12:12N 32°05' W 081°03'0 0.0
2017-Apr-12 12:00N 32°05' W 081°03'0 0.0
2017-Apr-12 11:30N 32°05' W 081°03'0 0.0
2017-Apr-12 10:54N 32°05' W 081°03'0 0.0
2017-Apr-12 10:30N 32°05' W 081°03'0 0.0
2017-Apr-12 10:00N 32°05' W 081°03'0 0.0
2017-Apr-12 09:30N 32°05' W 081°03'0 0.0
2017-Apr-12 09:00N 32°05' W 081°03'0 0.0
2017-Apr-12 08:30N 32°05' W 081°03'2 3.4
2017-Apr-12 08:00N 32°06' W 081°01'4 7.8
2017-Apr-12 07:30N 32°04' W 080°57'4 8.2
2017-Apr-12 07:00N 32°02' W 080°53'4 8.1
2017-Apr-12 06:30N 32°01' W 080°48'4 8.6
2017-Apr-12 06:00N 31°58' W 080°44'3 5.9
2017-Apr-12 05:30N 31°60' W 080°41'4 8.0
2017-Apr-12 05:00N 31°57' W 080°37'5 9.6
2017-Apr-12 04:30N 31°56' W 080°32'5 9.7
2017-Apr-12 04:00N 31°56' W 080°26'  
2017-Apr-09 23:43N 38°18' W 074°42'211.0
2017-Apr-09 23:30N 38°20' W 074°42'511.0
2017-Apr-09 23:00N 38°26' W 074°41'  

Dump ship's entire track history